createdAt,value
2022-11-21T00:00:32.308Z,100129.25
2022-11-21T00:01:46.423Z,100129.25
2022-11-21T00:03:02.400Z,100132.63
2022-11-21T00:05:30.089Z,100122.03
2022-11-21T00:06:46.328Z,100122.03
2022-11-21T00:07:57.036Z,100046.06
2022-11-21T00:10:25.068Z,100129.97
2022-11-21T00:11:46.341Z,100129.97
2022-11-21T00:12:55.875Z,100086.59
2022-11-21T00:15:23.297Z,100133.41
2022-11-21T00:16:46.344Z,100133.41
2022-11-21T00:17:49.907Z,100108.81
2022-11-21T00:20:17.081Z,100076.22
2022-11-21T00:21:46.327Z,100076.22
2022-11-21T00:22:43.599Z,99949.38
2022-11-21T00:25:10.570Z,100120.56
2022-11-21T00:26:46.529Z,100120.56
2022-11-21T00:27:36.969Z,100030.25
2022-11-21T00:30:04.500Z,100146.41
2022-11-21T00:31:46.354Z,100146.41
2022-11-21T00:32:31.623Z,100158.84
2022-11-21T00:34:58.023Z,100145.50
2022-11-21T00:36:46.369Z,100145.50
2022-11-21T00:37:24.359Z,100119.84
2022-11-21T00:39:50.685Z,99938.91
2022-11-21T00:41:46.336Z,99938.91
2022-11-21T00:42:17.011Z,100016.00
2022-11-21T00:44:43.414Z,100176.06
2022-11-21T00:46:46.373Z,100176.06
2022-11-21T00:47:09.789Z,100083.63
2022-11-21T00:49:36.205Z,100157.34
2022-11-21T00:51:46.362Z,100157.34
2022-11-21T00:52:02.555Z,100128.66
2022-11-21T00:54:29.200Z,100124.34
2022-11-21T00:56:46.355Z,100124.34
2022-11-21T00:56:55.656Z,100115.44
2022-11-21T00:59:21.976Z,100050.81
2022-11-21T01:01:46.371Z,100050.81
2022-11-21T01:01:48.326Z,100139.19
2022-11-21T01:04:14.824Z,100119.16
2022-11-21T01:06:41.150Z,100065.91
2022-11-21T01:06:46.356Z,100065.91
2022-11-21T01:09:07.594Z,99976.41
2022-11-21T01:11:34.099Z,100183.78
2022-11-21T01:11:46.395Z,100183.78
2022-11-21T01:14:00.854Z,100178.78
2022-11-21T01:16:28.683Z,100178.06
2022-11-21T01:16:46.376Z,100178.06
2022-11-21T01:18:56.416Z,100174.00
2022-11-21T01:21:25.344Z,100169.41
2022-11-21T01:21:46.373Z,100169.41
2022-11-21T01:23:51.932Z,100130.47
2022-11-21T01:26:23.949Z,100190.84
2022-11-21T01:26:46.407Z,100190.84
2022-11-21T01:28:51.080Z,100108.16
2022-11-21T01:31:22.952Z,100199.47
2022-11-21T01:31:46.386Z,100199.47
2022-11-21T01:33:49.784Z,100208.16
2022-11-21T01:36:18.542Z,100139.56
2022-11-21T01:36:46.381Z,100139.56
2022-11-21T01:38:47.953Z,100173.19
2022-11-21T01:41:17.817Z,100177.09
2022-11-21T01:41:46.372Z,100177.09
2022-11-21T01:43:44.279Z,100127.78
2022-11-21T01:46:15.030Z,100148.16
2022-11-21T01:46:46.377Z,100148.16
2022-11-21T01:49:07.946Z,100203.91
2022-11-21T01:51:42.498Z,100170.16
2022-11-21T01:51:46.380Z,100170.16
2022-11-21T01:54:18.720Z,100122.78
2022-11-21T01:57:16.038Z,100154.78
2022-11-21T01:57:16.168Z,100154.78
2022-11-21T02:00:05.063Z,100061.84
2022-11-21T02:01:46.380Z,100061.84
2022-11-21T02:02:35.605Z,100097.00
2022-11-21T02:05:04.419Z,100212.06
2022-11-21T02:06:46.392Z,100212.06
2022-11-21T02:07:35.612Z,100163.47
2022-11-21T02:10:03.457Z,100185.94
2022-11-21T02:11:46.364Z,100185.94
2022-11-21T02:12:39.802Z,100141.84
2022-11-21T02:15:07.115Z,100092.16
2022-11-21T02:16:46.389Z,100092.16
2022-11-21T02:17:33.594Z,100105.78
2022-11-21T02:20:03.033Z,100199.69
2022-11-21T02:21:46.396Z,100199.69
2022-11-21T02:22:49.241Z,100221.78
2022-11-21T02:25:21.919Z,100169.38
2022-11-21T02:26:46.507Z,100169.38
2022-11-21T02:27:49.313Z,100206.22
2022-11-21T02:30:16.839Z,100145.28
2022-11-21T02:31:46.411Z,100145.28
2022-11-21T02:32:48.264Z,100193.75
2022-11-21T02:35:17.112Z,100207.13
2022-11-21T02:36:46.379Z,100207.13
2022-11-21T02:37:46.938Z,100209.91
2022-11-21T02:40:18.863Z,100219.53
2022-11-21T02:41:46.400Z,100219.53
2022-11-21T02:43:00.142Z,100232.69
2022-11-21T02:45:38.185Z,100080.00
2022-11-21T02:46:46.398Z,100080.00
2022-11-21T02:48:04.947Z,100102.19
2022-11-21T02:50:33.779Z,100184.91
2022-11-21T02:51:46.390Z,100184.91
2022-11-21T02:53:00.555Z,100183.97
2022-11-21T02:55:27.503Z,100188.19
2022-11-21T02:56:46.416Z,100188.19
2022-11-21T02:57:53.982Z,100193.50
2022-11-21T03:00:21.110Z,100039.94
2022-11-21T03:01:46.384Z,100039.94
2022-11-21T03:02:47.854Z,100115.13
2022-11-21T03:05:17.027Z,100209.38
2022-11-21T03:06:46.373Z,100209.38
2022-11-21T03:07:43.827Z,100218.59
2022-11-21T03:10:10.764Z,100192.31
2022-11-21T03:11:46.414Z,100192.31
2022-11-21T03:12:38.638Z,100140.41
2022-11-21T03:15:06.931Z,100212.66
2022-11-21T03:16:46.378Z,100212.66
2022-11-21T03:17:33.492Z,100178.25
2022-11-21T03:19:59.866Z,100197.69
2022-11-21T03:21:46.388Z,100197.69
2022-11-21T03:22:26.429Z,100070.59
2022-11-21T03:24:52.990Z,99976.66
2022-11-21T03:26:46.552Z,99976.66
2022-11-21T03:27:19.402Z,100176.78
2022-11-21T03:29:45.793Z,100200.41
2022-11-21T03:31:46.389Z,100200.41
2022-11-21T03:32:12.183Z,100141.09
2022-11-21T03:34:38.514Z,100186.13
2022-11-21T03:36:46.398Z,100186.13
2022-11-21T03:37:04.952Z,100033.63
2022-11-21T03:39:31.375Z,100086.75
2022-11-21T03:41:46.374Z,100086.75
2022-11-21T03:41:57.838Z,100176.00
2022-11-21T03:44:24.375Z,100192.31
2022-11-21T03:46:46.387Z,100192.31
2022-11-21T03:46:50.746Z,100218.44
2022-11-21T03:49:17.140Z,100207.53
2022-11-21T03:51:44.587Z,100171.53
2022-11-21T03:51:46.383Z,100171.53
2022-11-21T03:54:11.603Z,100172.75
2022-11-21T03:56:39.771Z,100163.25
2022-11-21T03:56:46.408Z,100163.25
2022-11-21T03:59:06.544Z,100180.09
2022-11-21T04:01:36.562Z,100063.09
2022-11-21T04:01:46.422Z,100063.09
2022-11-21T04:04:03.675Z,100056.25
2022-11-21T04:06:31.434Z,100157.38
2022-11-21T04:06:46.422Z,100157.38
2022-11-21T04:08:57.878Z,100204.47
2022-11-21T04:11:24.649Z,100100.34
2022-11-21T04:11:46.396Z,100100.34
2022-11-21T04:13:52.066Z,100101.22
2022-11-21T04:16:18.637Z,100129.94
2022-11-21T04:16:46.391Z,100129.94
2022-11-21T04:18:45.083Z,100191.63
2022-11-21T04:21:11.521Z,100184.50
2022-11-21T04:21:46.422Z,100184.50
2022-11-21T04:23:37.867Z,100174.13
2022-11-21T04:26:04.266Z,100147.91
2022-11-21T04:26:46.434Z,100147.91
2022-11-21T04:28:31.300Z,100118.09
2022-11-21T04:31:09.970Z,100064.72
2022-11-21T04:31:46.428Z,100064.72
2022-11-21T04:33:38.707Z,100182.69
2022-11-21T04:36:06.194Z,100127.63
2022-11-21T04:36:46.471Z,100127.63
2022-11-21T04:38:32.551Z,100076.91
2022-11-21T04:40:58.884Z,100172.06
2022-11-21T04:41:46.394Z,100172.06
2022-11-21T04:43:25.211Z,100143.00
2022-11-21T04:45:51.536Z,100110.03
2022-11-21T04:46:46.425Z,100110.03
2022-11-21T04:48:17.985Z,100168.72
2022-11-21T04:50:45.773Z,100187.16
2022-11-21T04:51:46.396Z,100187.16
2022-11-21T04:53:12.425Z,100122.06
2022-11-21T04:55:38.821Z,100142.53
2022-11-21T04:56:46.424Z,100142.53
2022-11-21T04:58:05.340Z,100173.78
2022-11-21T05:00:31.741Z,100175.34
2022-11-21T05:01:46.396Z,100175.34
2022-11-21T05:03:05.734Z,100196.53
2022-11-21T05:05:32.631Z,100160.78
2022-11-21T05:06:46.418Z,100160.78
2022-11-21T05:07:59.198Z,100110.84
2022-11-21T05:10:25.629Z,100122.03
2022-11-21T05:11:46.405Z,100122.03
2022-11-21T05:13:18.346Z,100184.78
2022-11-21T05:15:45.304Z,100158.47
2022-11-21T05:16:46.402Z,100158.47
2022-11-21T05:18:11.794Z,100112.88
2022-11-21T05:20:38.189Z,100176.28
2022-11-21T05:21:46.426Z,100176.28
2022-11-21T05:23:04.572Z,100112.13
2022-11-21T05:25:30.968Z,100055.59
2022-11-21T05:26:46.596Z,100055.59
2022-11-21T05:27:57.436Z,100107.25
2022-11-21T05:30:23.977Z,100145.66
2022-11-21T05:31:46.406Z,100145.66
2022-11-21T05:32:50.364Z,100077.78
2022-11-21T05:35:16.742Z,100090.50
2022-11-21T05:36:46.448Z,100090.50
2022-11-21T05:37:43.278Z,100172.94
2022-11-21T05:40:10.215Z,100166.22
2022-11-21T05:41:46.428Z,100166.22
2022-11-21T05:42:58.316Z,100193.34
2022-11-21T05:45:24.656Z,100133.91
2022-11-21T05:46:46.441Z,100133.91
2022-11-21T05:47:51.027Z,100123.91
2022-11-21T05:50:17.443Z,100188.09
2022-11-21T05:51:46.438Z,100188.09
2022-11-21T05:52:43.819Z,100187.13
2022-11-21T05:55:10.157Z,100177.22
2022-11-21T05:56:46.415Z,100177.22
2022-11-21T05:57:36.566Z,100190.16
2022-11-21T06:00:03.648Z,100196.22
2022-11-21T06:01:46.455Z,100196.22
2022-11-21T06:02:48.924Z,100144.28
2022-11-21T06:05:15.335Z,100169.69
2022-11-21T06:06:46.453Z,100169.69
2022-11-21T06:07:41.766Z,100147.59
2022-11-21T06:10:08.332Z,100186.31
2022-11-21T06:11:46.479Z,100186.31
2022-11-21T06:12:34.651Z,100105.97
2022-11-21T06:15:01.048Z,100161.81
2022-11-21T06:16:46.447Z,100161.81
2022-11-21T06:17:27.401Z,100186.31
2022-11-21T06:19:53.784Z,100146.31
2022-11-21T06:21:46.461Z,100146.31
2022-11-21T06:22:20.181Z,99977.00
2022-11-21T06:24:46.648Z,100106.44
2022-11-21T06:26:46.428Z,100106.44
2022-11-21T06:27:12.962Z,100053.72
2022-11-21T06:29:39.365Z,100136.81
2022-11-21T06:31:46.417Z,100136.81
2022-11-21T06:32:05.719Z,100170.47
2022-11-21T06:34:32.164Z,100102.72
2022-11-21T06:36:46.443Z,100102.72
2022-11-21T06:36:59.149Z,100165.97
2022-11-21T06:39:25.647Z,100053.22
2022-11-21T06:41:46.420Z,100053.22
2022-11-21T06:41:52.019Z,100148.91
2022-11-21T06:44:18.747Z,100097.88
2022-11-21T06:46:51.253Z,100170.69
2022-11-21T06:46:51.934Z,100170.69
2022-11-21T06:49:18.189Z,100114.88
2022-11-21T06:51:44.727Z,100133.28
2022-11-21T06:51:46.415Z,100133.28
2022-11-21T06:54:16.253Z,100140.13
2022-11-21T06:56:43.081Z,100168.50
2022-11-21T06:56:46.440Z,100168.50
2022-11-21T06:59:09.393Z,100085.50
2022-11-21T07:01:35.788Z,99995.34
2022-11-21T07:01:46.492Z,99995.34
2022-11-21T07:04:02.145Z,100057.31
2022-11-21T07:06:28.461Z,100033.31
2022-11-21T07:06:46.432Z,100033.31
2022-11-21T07:11:41.295Z,100023.88
2022-11-21T07:11:46.444Z,100023.88
2022-11-21T07:14:09.244Z,100101.25
2022-11-21T07:16:35.929Z,100102.97
2022-11-21T07:16:46.422Z,100102.97
2022-11-21T07:19:02.390Z,100086.13
2022-11-21T07:21:28.746Z,100095.19
2022-11-21T07:21:46.423Z,100095.19
2022-11-21T07:23:55.163Z,100108.50
2022-11-21T07:26:21.564Z,100020.50
2022-11-21T07:26:46.610Z,100020.50
2022-11-21T07:28:47.987Z,100074.81
2022-11-21T07:31:14.624Z,100058.31
2022-11-21T07:31:46.442Z,100058.31
2022-11-21T07:33:43.500Z,100134.91
2022-11-21T07:36:10.884Z,100104.75
2022-11-21T07:36:46.431Z,100104.75
2022-11-21T07:38:37.229Z,100091.63
2022-11-21T07:41:03.626Z,100089.75
2022-11-21T07:41:46.447Z,100089.75
2022-11-21T07:43:29.999Z,100137.91
2022-11-21T07:45:56.426Z,100118.22
2022-11-21T07:46:46.442Z,100118.22
2022-11-21T07:48:22.755Z,100085.88
2022-11-21T07:50:49.125Z,100056.16
2022-11-21T07:51:46.459Z,100056.16
2022-11-21T07:53:15.522Z,100076.34
2022-11-21T07:55:42.440Z,100072.50
2022-11-21T07:56:46.430Z,100072.50
2022-11-21T07:58:15.008Z,100080.53
2022-11-21T08:00:42.894Z,100075.31
2022-11-21T08:01:46.541Z,100075.31
2022-11-21T08:03:11.893Z,100076.78
2022-11-21T08:05:39.992Z,100085.16
2022-11-21T08:06:46.429Z,100085.16
2022-11-21T08:08:06.993Z,100112.66
2022-11-21T08:10:33.739Z,100026.03
2022-11-21T08:11:46.437Z,100026.03
2022-11-21T08:13:00.218Z,100022.50
2022-11-21T08:15:26.612Z,100012.09
2022-11-21T08:16:46.457Z,100012.09
2022-11-21T08:17:52.991Z,100021.91
2022-11-21T08:20:19.423Z,100080.84
2022-11-21T08:21:46.527Z,100080.84
2022-11-21T08:22:45.830Z,100075.69
2022-11-21T08:25:12.327Z,100026.13
2022-11-21T08:26:46.489Z,100026.13
2022-11-21T08:27:39.599Z,100056.88
2022-11-21T08:30:08.874Z,100120.50
2022-11-21T08:31:46.457Z,100120.50
2022-11-21T08:32:35.381Z,99947.88
2022-11-21T08:35:01.980Z,100088.97
2022-11-21T08:36:46.424Z,100088.97
2022-11-21T08:37:31.748Z,100103.19
2022-11-21T08:39:59.031Z,100112.41
2022-11-21T08:41:46.452Z,100112.41
2022-11-21T08:42:26.117Z,100067.63
2022-11-21T08:44:52.582Z,100108.84
2022-11-21T08:46:46.463Z,100108.84
2022-11-21T08:47:20.435Z,100003.69
2022-11-21T08:49:47.383Z,100033.19
2022-11-21T08:51:46.453Z,100033.19
2022-11-21T08:52:14.711Z,100060.19
2022-11-21T08:54:41.151Z,100105.06
2022-11-21T08:56:46.482Z,100105.06
2022-11-21T08:57:07.582Z,99994.84
2022-11-21T08:59:33.917Z,100035.31
2022-11-21T09:01:46.526Z,100035.31
2022-11-21T09:02:00.284Z,100066.19
2022-11-21T09:04:27.031Z,100082.00
2022-11-21T09:06:46.449Z,100082.00
2022-11-21T09:06:53.666Z,100041.31
2022-11-21T09:09:25.111Z,99982.13
2022-11-21T09:11:46.433Z,99982.13
2022-11-21T09:11:52.028Z,100053.81
2022-11-21T09:14:36.772Z,100069.56
2022-11-21T09:16:46.446Z,100069.56
2022-11-21T09:17:22.012Z,100063.53
2022-11-21T09:19:48.951Z,99992.25
2022-11-21T09:21:46.454Z,99992.25
2022-11-21T09:22:15.301Z,99961.84
2022-11-21T09:24:41.727Z,100012.97
2022-11-21T09:26:46.994Z,100012.97
2022-11-21T09:27:08.098Z,100008.00
2022-11-21T09:29:34.421Z,100066.06
2022-11-21T09:31:46.454Z,100066.06
2022-11-21T09:32:00.827Z,100044.19
2022-11-21T09:34:27.613Z,100025.16
2022-11-21T09:36:47.000Z,100025.16
2022-11-21T09:36:55.380Z,99968.47
2022-11-21T09:39:21.795Z,99930.84
2022-11-21T09:41:46.480Z,99930.84
2022-11-21T09:42:00.355Z,100050.19
2022-11-21T09:44:52.318Z,100048.84
2022-11-21T09:46:46.463Z,100048.84
2022-11-21T09:47:37.865Z,99943.38
2022-11-21T09:50:26.111Z,99904.84
2022-11-21T09:51:46.453Z,99904.84
2022-11-21T09:53:06.759Z,99949.16
2022-11-21T09:55:44.834Z,100058.56
2022-11-21T09:56:47.029Z,100058.56
2022-11-21T09:58:31.969Z,100065.41
2022-11-21T10:00:59.156Z,99914.94
2022-11-21T10:01:47.179Z,99914.94
2022-11-21T10:03:29.769Z,100063.97
2022-11-21T10:06:03.628Z,100056.00
2022-11-21T10:06:47.223Z,100056.00
2022-11-21T10:08:48.156Z,100060.06
2022-11-21T10:11:24.255Z,100058.97
2022-11-21T10:11:46.451Z,100058.97
2022-11-21T10:14:07.824Z,100056.00
2022-11-21T10:17:08.440Z,100051.41
2022-11-21T10:17:08.581Z,100051.41
2022-11-21T10:19:50.113Z,100040.72
2022-11-21T10:21:46.452Z,100040.72
2022-11-21T10:22:49.524Z,100031.22
2022-11-21T10:25:27.155Z,100026.97
2022-11-21T10:26:46.612Z,100026.97
2022-11-21T10:28:02.410Z,99865.19
2022-11-21T10:30:29.703Z,99977.09
2022-11-21T10:31:46.478Z,99977.09
2022-11-21T10:33:01.608Z,99964.19
2022-11-21T10:35:39.656Z,100001.25
2022-11-21T10:36:46.450Z,100001.25
2022-11-21T10:38:23.442Z,99935.94
2022-11-21T10:41:02.048Z,99940.31
2022-11-21T10:41:46.484Z,99940.31
2022-11-21T10:43:58.441Z,99928.97
2022-11-21T10:46:24.782Z,99958.13
2022-11-21T10:46:47.491Z,99958.13
2022-11-21T10:48:58.759Z,99781.41
2022-11-21T10:51:34.097Z,100000.97
2022-11-21T10:51:47.169Z,100000.97
2022-11-21T10:54:27.493Z,99968.94
2022-11-21T10:56:46.492Z,99968.94
2022-11-21T10:56:56.560Z,99979.06
2022-11-21T10:59:30.440Z,99997.38
2022-11-21T11:01:46.460Z,99997.38
2022-11-21T11:02:13.662Z,99800.72
2022-11-21T11:04:47.546Z,99962.72
2022-11-21T11:06:46.490Z,99962.72
2022-11-21T11:07:23.995Z,99980.66
2022-11-21T11:09:53.567Z,99906.78
2022-11-21T11:11:46.466Z,99906.78
2022-11-21T11:12:23.884Z,99958.94
2022-11-21T11:14:54.722Z,99946.97
2022-11-21T11:16:46.510Z,99946.97
2022-11-21T11:17:32.416Z,99886.13
2022-11-21T11:20:26.589Z,99913.75
2022-11-21T11:21:46.481Z,99913.75
2022-11-21T11:22:53.105Z,99869.84
2022-11-21T11:25:19.483Z,99822.75
2022-11-21T11:26:46.502Z,99822.75
2022-11-21T11:27:45.929Z,99877.84
2022-11-21T11:30:17.316Z,99915.53
2022-11-21T11:31:46.464Z,99915.53
2022-11-21T11:32:43.709Z,99886.34
2022-11-21T11:35:12.807Z,99899.75
2022-11-21T11:36:47.198Z,99899.75
2022-11-21T11:37:48.445Z,99859.34
2022-11-21T11:40:28.438Z,99890.75
2022-11-21T11:41:47.237Z,99890.75
2022-11-21T11:43:35.175Z,99884.84
2022-11-21T11:46:58.325Z,99876.25
2022-11-21T11:46:58.469Z,99876.25
2022-11-21T11:49:53.095Z,99868.38
2022-11-21T11:51:47.018Z,99868.38
2022-11-21T11:52:25.127Z,99745.63
2022-11-21T11:54:58.883Z,99810.34
2022-11-21T11:56:47.188Z,99810.34
2022-11-21T11:57:27.626Z,99831.81
2022-11-21T12:00:14.520Z,99758.78
2022-11-21T12:01:46.536Z,99758.78
2022-11-21T12:02:59.897Z,99839.03
2022-11-21T12:05:29.587Z,99811.91
2022-11-21T12:07:26.221Z,99811.91
2022-11-21T12:12:00.633Z,99804.91
2022-11-21T12:12:00.770Z,99804.91
2022-11-21T12:15:00.851Z,99810.13
2022-11-21T12:16:47.072Z,99810.13
2022-11-21T12:17:35.196Z,99747.75
2022-11-21T12:20:11.131Z,99764.84
2022-11-21T12:21:46.481Z,99764.84
2022-11-21T12:22:37.634Z,99731.78
2022-11-21T12:25:09.870Z,99627.53
2022-11-21T12:26:47.115Z,99627.53
2022-11-21T12:27:36.984Z,99717.09
2022-11-21T12:30:25.559Z,99758.97
2022-11-21T12:31:47.198Z,99758.97
2022-11-21T12:32:57.953Z,99730.56
2022-11-21T12:35:54.147Z,99740.66
2022-11-21T12:36:47.058Z,99740.66
2022-11-21T12:38:49.138Z,99746.88
2022-11-21T12:41:42.593Z,99698.69
2022-11-21T12:41:46.475Z,99698.69
2022-11-21T12:44:21.751Z,99595.34
2022-11-21T12:46:47.126Z,99595.34
2022-11-21T12:47:06.479Z,99663.63
2022-11-21T12:50:06.479Z,99723.19
2022-11-21T12:51:46.494Z,99723.19
2022-11-21T12:53:08.291Z,99633.47
2022-11-21T12:55:39.912Z,99676.94
2022-11-21T12:56:46.477Z,99676.94
2022-11-21T12:58:31.492Z,99694.50
2022-11-21T13:00:59.114Z,99226.44
2022-11-21T13:01:46.534Z,99226.44
2022-11-21T13:03:51.039Z,99630.69
2022-11-21T13:06:26.934Z,99673.66
2022-11-21T13:06:47.098Z,99673.66
2022-11-21T13:08:55.833Z,99576.75
2022-11-21T13:12:01.466Z,99629.94
2022-11-21T13:12:01.703Z,99629.94
2022-11-21T13:14:34.527Z,99671.56
2022-11-21T13:16:46.467Z,99671.56
2022-11-21T13:17:08.903Z,99543.75
2022-11-21T13:19:41.531Z,99650.13
2022-11-21T13:21:46.483Z,99650.13
2022-11-21T13:22:27.766Z,99661.81
2022-11-21T13:24:56.414Z,99640.53
2022-11-21T13:26:47.135Z,99640.53
2022-11-21T13:27:26.484Z,99570.84
2022-11-21T13:30:08.823Z,99625.00
2022-11-21T13:31:46.458Z,99625.00
2022-11-21T13:32:44.362Z,99610.81
2022-11-21T13:35:19.972Z,99602.59
2022-11-21T13:36:46.512Z,99602.59
2022-11-21T13:37:49.449Z,99589.53
2022-11-21T13:40:28.288Z,99578.31
2022-11-21T13:41:46.500Z,99578.31
2022-11-21T13:45:59.229Z,99506.72
2022-11-21T13:46:47.036Z,99506.72
2022-11-21T13:48:28.677Z,99553.47
2022-11-21T13:51:14.307Z,99500.91
2022-11-21T13:51:46.478Z,99500.91
2022-11-21T13:54:08.598Z,99521.81
2022-11-21T13:56:38.933Z,99456.50
2022-11-21T13:56:47.187Z,99456.50
2022-11-21T13:59:30.450Z,99526.88
2022-11-21T14:01:46.533Z,99526.88
2022-11-21T14:02:15.927Z,99495.16
2022-11-21T14:04:51.739Z,99469.56
2022-11-21T14:06:46.535Z,99469.56
2022-11-21T14:07:33.807Z,99510.75
2022-11-21T14:10:18.171Z,99508.28
2022-11-21T14:11:47.050Z,99508.28
2022-11-21T14:12:48.688Z,99504.84
2022-11-21T14:15:42.854Z,99479.75
2022-11-21T14:16:47.124Z,99479.75
2022-11-21T14:18:22.243Z,99482.19
2022-11-21T14:20:58.019Z,99493.09
2022-11-21T14:21:46.496Z,99493.09
2022-11-21T14:23:28.298Z,99475.91
2022-11-21T14:26:03.781Z,99382.16
2022-11-21T14:26:47.220Z,99382.16
2022-11-21T14:28:35.010Z,99460.91
2022-11-21T14:31:06.608Z,99463.84
2022-11-21T14:31:47.276Z,99463.84
2022-11-21T14:33:35.504Z,99458.84
2022-11-21T14:36:06.341Z,99464.50
2022-11-21T14:36:46.473Z,99464.50
2022-11-21T14:38:45.001Z,99459.25
2022-11-21T14:41:18.188Z,99395.78
2022-11-21T14:41:47.186Z,99395.78
2022-11-21T14:43:44.553Z,99392.34
2022-11-21T14:46:21.095Z,99309.16
2022-11-21T14:46:47.451Z,99309.16
2022-11-21T14:48:47.508Z,99437.69
2022-11-21T14:51:19.749Z,99412.34
2022-11-21T14:51:46.499Z,99412.34
2022-11-21T14:53:48.358Z,99355.44
2022-11-21T14:56:28.328Z,99384.59
2022-11-21T14:56:47.119Z,99384.59
2022-11-21T14:58:57.878Z,99427.56
2022-11-21T15:01:34.107Z,99417.56
2022-11-21T15:01:47.818Z,99417.56
2022-11-21T15:04:03.646Z,99395.44
2022-11-21T15:06:33.515Z,99362.94
2022-11-21T15:06:47.115Z,99362.94
2022-11-21T15:11:52.630Z,99299.72
2022-11-21T15:11:52.767Z,99299.72
2022-11-21T15:14:33.928Z,99359.19
2022-11-21T15:16:47.304Z,99359.19
2022-11-21T15:17:04.077Z,99396.66
2022-11-21T15:19:32.718Z,99296.75
2022-11-21T15:21:46.678Z,99296.75
2022-11-21T15:22:04.572Z,99289.63
2022-11-21T15:24:39.923Z,99382.78
2022-11-21T15:26:47.372Z,99382.78
2022-11-21T15:27:28.062Z,99384.81
2022-11-21T15:30:21.382Z,99330.97
2022-11-21T15:31:46.481Z,99330.97
2022-11-21T15:33:15.620Z,99372.97
2022-11-21T15:35:51.084Z,99376.06
2022-11-21T15:36:47.055Z,99376.06
2022-11-21T15:38:33.647Z,99389.78
2022-11-21T15:41:08.043Z,99381.41
2022-11-21T15:41:46.479Z,99381.41
2022-11-21T15:43:37.257Z,99386.41
2022-11-21T15:46:05.316Z,99299.47
2022-11-21T15:46:47.194Z,99299.47
2022-11-21T15:48:31.651Z,99356.94
2022-11-21T15:50:59.114Z,99305.50
2022-11-21T15:52:06.927Z,99305.50
2022-11-21T15:53:25.599Z,99351.81
2022-11-21T15:55:51.930Z,99271.16
2022-11-21T15:56:47.200Z,99271.16
2022-11-21T15:58:18.479Z,99310.63
2022-11-21T16:00:44.895Z,99271.75
2022-11-21T16:01:47.010Z,99271.75
2022-11-21T16:03:11.295Z,99259.25
2022-11-21T16:05:38.861Z,99269.06
2022-11-21T16:06:46.894Z,99269.06
2022-11-21T16:08:05.507Z,99343.09
2022-11-21T16:10:31.925Z,99269.00
2022-11-21T16:11:47.110Z,99269.00
2022-11-21T16:12:58.333Z,99379.22
2022-11-21T16:15:24.864Z,99285.09
2022-11-21T16:16:47.442Z,99285.09
2022-11-21T16:17:52.307Z,99347.19
2022-11-21T16:20:18.808Z,99384.34
2022-11-21T16:21:46.512Z,99384.34
2022-11-21T16:22:47.769Z,99327.34
2022-11-21T16:25:15.338Z,99282.25
2022-11-21T16:26:47.114Z,99282.25
2022-11-21T16:27:41.760Z,99330.75
2022-11-21T16:30:08.965Z,99306.41
2022-11-21T16:31:46.518Z,99306.41
2022-11-21T16:32:35.379Z,99275.19
2022-11-21T16:35:01.761Z,99304.88
2022-11-21T16:36:46.496Z,99304.88
2022-11-21T16:37:28.047Z,99160.41
2022-11-21T16:39:54.341Z,99333.97
2022-11-21T16:41:46.489Z,99333.97
2022-11-21T16:42:20.764Z,99291.50
2022-11-21T16:44:48.163Z,99279.31
2022-11-21T16:46:47.563Z,99279.31
2022-11-21T16:47:15.073Z,99243.78
2022-11-21T16:49:48.247Z,99280.56
2022-11-21T16:51:46.471Z,99280.56
2022-11-21T16:52:15.278Z,99117.44
2022-11-21T16:54:41.691Z,99180.59
2022-11-21T16:56:47.105Z,99180.59
2022-11-21T16:57:08.037Z,99260.69
2022-11-21T16:59:34.409Z,99229.34
2022-11-21T17:01:47.380Z,99229.34
2022-11-21T17:02:00.780Z,99186.66
2022-11-21T17:04:27.162Z,99252.72
2022-11-21T17:06:47.144Z,99252.72
2022-11-21T17:06:53.562Z,99181.66
2022-11-21T17:09:19.872Z,99065.03
2022-11-21T17:11:46.256Z,99062.16
2022-11-21T17:11:46.552Z,99062.16
2022-11-21T17:14:12.952Z,99178.66
2022-11-21T17:16:42.501Z,99161.81
2022-11-21T17:16:46.489Z,99161.81
2022-11-21T17:19:15.033Z,99193.66
2022-11-21T17:21:41.681Z,99138.56
2022-11-21T17:21:46.511Z,99138.56
2022-11-21T17:24:08.094Z,99279.47
2022-11-21T17:26:37.840Z,99226.81
2022-11-21T17:26:46.487Z,99226.81
2022-11-21T17:29:04.897Z,99199.63
2022-11-21T17:31:32.084Z,99260.44
2022-11-21T17:31:46.993Z,99260.44
2022-11-21T17:34:01.126Z,99139.81
2022-11-21T17:36:29.448Z,99221.78
2022-11-21T17:36:46.494Z,99221.78
2022-11-21T17:38:56.223Z,99242.59
2022-11-21T17:41:24.061Z,99251.53
2022-11-21T17:41:46.509Z,99251.53
2022-11-21T17:43:54.332Z,99190.75
2022-11-21T17:46:20.988Z,99271.69
2022-11-21T17:46:47.043Z,99271.69
2022-11-21T17:48:54.823Z,99242.88
2022-11-21T17:51:29.358Z,99272.09
2022-11-21T17:51:46.489Z,99272.09
2022-11-21T17:53:56.742Z,99229.34
2022-11-21T17:56:26.238Z,99257.91
2022-11-21T17:56:49.222Z,99257.91
2022-11-21T17:58:52.752Z,99251.50
2022-11-21T18:01:20.097Z,99186.41
2022-11-21T18:01:46.629Z,99186.41
2022-11-21T18:03:58.196Z,99223.06
2022-11-21T18:06:25.929Z,99249.06
2022-11-21T18:06:47.146Z,99249.06
2022-11-21T18:08:52.404Z,99244.88
2022-11-21T18:11:23.745Z,99245.63
2022-11-21T18:11:46.493Z,99245.63
2022-11-21T18:13:50.638Z,99223.91
2022-11-21T18:16:20.736Z,98972.75
2022-11-21T18:16:51.114Z,98972.75
2022-11-21T18:18:47.625Z,99106.53
2022-11-21T18:21:21.250Z,99180.34
2022-11-21T18:21:46.493Z,99180.34
2022-11-21T18:23:48.577Z,99254.78
2022-11-21T18:26:21.105Z,99255.53
2022-11-21T18:26:47.126Z,99255.53
2022-11-21T18:28:57.232Z,99202.75
2022-11-21T18:31:36.109Z,99246.13
2022-11-21T18:31:46.498Z,99246.13
2022-11-21T18:34:05.065Z,99151.44
2022-11-21T18:36:32.854Z,99231.38
2022-11-21T18:36:47.025Z,99231.38
2022-11-21T18:39:07.165Z,99245.66
2022-11-21T18:41:36.364Z,99176.50
2022-11-21T18:41:47.188Z,99176.50
2022-11-21T18:44:05.394Z,99102.03
2022-11-21T18:46:34.076Z,99224.63
2022-11-21T18:46:47.065Z,99224.63
2022-11-21T18:49:04.583Z,99168.16
2022-11-21T18:51:32.500Z,99066.53
2022-11-21T18:51:46.497Z,99066.53
2022-11-21T18:54:04.097Z,99198.78
2022-11-21T18:56:30.596Z,99221.78
2022-11-21T18:56:47.274Z,99221.78
2022-11-21T18:58:58.763Z,99202.72
2022-11-21T19:01:27.897Z,99178.78
2022-11-21T19:01:46.563Z,99178.78
2022-11-21T19:03:55.256Z,99202.13
2022-11-21T19:06:24.835Z,99190.13
2022-11-21T19:06:46.500Z,99190.13
2022-11-21T19:08:55.560Z,99189.19
2022-11-21T19:11:24.333Z,99183.31
2022-11-21T19:11:46.484Z,99183.31
2022-11-21T19:13:51.736Z,99109.13
2022-11-21T19:16:20.411Z,99064.41
2022-11-21T19:16:46.505Z,99064.41
2022-11-21T19:19:05.440Z,99104.75
2022-11-21T19:21:38.759Z,99165.25
2022-11-21T19:21:46.505Z,99165.25
2022-11-21T19:24:09.318Z,99112.31
2022-11-21T19:26:35.669Z,99153.94
2022-11-21T19:26:46.512Z,99153.94
2022-11-21T19:29:03.150Z,99068.81
2022-11-21T19:31:29.560Z,99066.06